sensor_id;sensor_type;location;lat;lon;timestamp;temperature;humidity
13854;DHT22;6997;51.782;8.824;2022-11-23T00:00:24;6.60;99.90
13854;DHT22;6997;51.782;8.824;2022-11-23T00:02:56;6.60;99.90
13854;DHT22;6997;51.782;8.824;2022-11-23T00:05:22;6.80;99.90
13854;DHT22;6997;51.782;8.824;2022-11-23T00:07:48;6.80;99.90
13854;DHT22;6997;51.782;8.824;2022-11-23T00:10:14;6.70;99.90
13854;DHT22;6997;51.782;8.824;2022-11-23T00:15:07;6.80;99.90
13854;DHT22;6997;51.782;8.824;2022-11-23T00:17:33;6.90;99.90
13854;DHT22;6997;51.782;8.824;2022-11-23T00:22:24;6.90;99.90
13854;DHT22;6997;51.782;8.824;2022-11-23T00:27:16;6.90;99.90
13854;DHT22;6997;51.782;8.824;2022-11-23T00:34:33;6.90;99.90
13854;DHT22;6997;51.782;8.824;2022-11-23T00:36:59;6.90;99.90
13854;DHT22;6997;51.782;8.824;2022-11-23T00:39:24;6.90;99.90
13854;DHT22;6997;51.782;8.824;2022-11-23T00:41:52;6.90;99.90
13854;DHT22;6997;51.782;8.824;2022-11-23T00:44:17;7.00;99.90
13854;DHT22;6997;51.782;8.824;2022-11-23T00:46:43;6.90;99.90
13854;DHT22;6997;51.782;8.824;2022-11-23T00:49:08;6.90;99.90
13854;DHT22;6997;51.782;8.824;2022-11-23T00:51:35;6.90;99.90
13854;DHT22;6997;51.782;8.824;2022-11-23T00:54:02;6.90;99.90
13854;DHT22;6997;51.782;8.824;2022-11-23T00:56:30;6.90;99.90
13854;DHT22;6997;51.782;8.824;2022-11-23T00:58:57;6.90;99.90
13854;DHT22;6997;51.782;8.824;2022-11-23T01:01:24;6.90;99.90
13854;DHT22;6997;51.782;8.824;2022-11-23T01:03:53;7.00;99.90
13854;DHT22;6997;51.782;8.824;2022-11-23T01:06:21;7.00;99.90
13854;DHT22;6997;51.782;8.824;2022-11-23T01:08:49;6.90;99.90
13854;DHT22;6997;51.782;8.824;2022-11-23T01:11:15;6.90;99.90
13854;DHT22;6997;51.782;8.824;2022-11-23T01:13:41;7.00;99.90
13854;DHT22;6997;51.782;8.824;2022-11-23T01:16:12;7.00;99.90
13854;DHT22;6997;51.782;8.824;2022-11-23T01:18:38;6.90;99.90
13854;DHT22;6997;51.782;8.824;2022-11-23T01:21:03;6.90;99.90
13854;DHT22;6997;51.782;8.824;2022-11-23T01:23:29;6.90;99.90
13854;DHT22;6997;51.782;8.824;2022-11-23T01:25:55;6.80;99.90
13854;DHT22;6997;51.782;8.824;2022-11-23T01:30:46;6.90;99.90
13854;DHT22;6997;51.782;8.824;2022-11-23T01:33:12;6.90;99.90
13854;DHT22;6997;51.782;8.824;2022-11-23T01:35:38;6.90;99.90
13854;DHT22;6997;51.782;8.824;2022-11-23T01:42:59;7.00;99.90
13854;DHT22;6997;51.782;8.824;2022-11-23T01:45:38;7.00;99.90
13854;DHT22;6997;51.782;8.824;2022-11-23T01:48:18;6.90;99.90
13854;DHT22;6997;51.782;8.824;2022-11-23T01:50:46;7.00;99.90
13854;DHT22;6997;51.782;8.824;2022-11-23T01:53:13;6.90;99.90
13854;DHT22;6997;51.782;8.824;2022-11-23T01:55:39;7.00;99.90
13854;DHT22;6997;51.782;8.824;2022-11-23T01:58:07;7.00;99.90
13854;DHT22;6997;51.782;8.824;2022-11-23T02:00:34;7.10;99.90
13854;DHT22;6997;51.782;8.824;2022-11-23T02:05:53;7.20;99.90
13854;DHT22;6997;51.782;8.824;2022-11-23T02:08:24;7.10;99.90
13854;DHT22;6997;51.782;8.824;2022-11-23T02:10:51;7.10;99.90
13854;DHT22;6997;51.782;8.824;2022-11-23T02:13:17;7.10;99.90
13854;DHT22;6997;51.782;8.824;2022-11-23T02:18:15;7.10;99.90
13854;DHT22;6997;51.782;8.824;2022-11-23T02:20:43;7.10;99.90
13854;DHT22;6997;51.782;8.824;2022-11-23T02:28:23;7.20;99.90
13854;DHT22;6997;51.782;8.824;2022-11-23T02:30:52;7.20;99.90
13854;DHT22;6997;51.782;8.824;2022-11-23T02:35:52;7.20;99.90
13854;DHT22;6997;51.782;8.824;2022-11-23T02:38:20;7.20;99.90
13854;DHT22;6997;51.782;8.824;2022-11-23T02:43:12;7.20;99.90
13854;DHT22;6997;51.782;8.824;2022-11-23T02:45:52;7.10;99.90
13854;DHT22;6997;51.782;8.824;2022-11-23T02:50:45;7.10;99.90
13854;DHT22;6997;51.782;8.824;2022-11-23T02:53:11;7.20;99.90
13854;DHT22;6997;51.782;8.824;2022-11-23T02:58:04;7.10;99.90
13854;DHT22;6997;51.782;8.824;2022-11-23T03:00:30;7.20;99.90
13854;DHT22;6997;51.782;8.824;2022-11-23T03:02:58;7.20;99.90
13854;DHT22;6997;51.782;8.824;2022-11-23T03:10:17;7.20;99.90
13854;DHT22;6997;51.782;8.824;2022-11-23T03:15:09;7.20;99.90
13854;DHT22;6997;51.782;8.824;2022-11-23T03:17:35;7.20;99.90
13854;DHT22;6997;51.782;8.824;2022-11-23T03:24:53;7.20;99.90
13854;DHT22;6997;51.782;8.824;2022-11-23T03:29:44;7.20;99.90
13854;DHT22;6997;51.782;8.824;2022-11-23T03:32:10;7.10;99.90
13854;DHT22;6997;51.782;8.824;2022-11-23T03:34:35;7.10;99.90
13854;DHT22;6997;51.782;8.824;2022-11-23T03:39:27;7.10;99.90
13854;DHT22;6997;51.782;8.824;2022-11-23T03:41:52;7.20;99.90
13854;DHT22;6997;51.782;8.824;2022-11-23T03:46:44;7.10;99.90
13854;DHT22;6997;51.782;8.824;2022-11-23T03:49:10;7.00;99.90
13854;DHT22;6997;51.782;8.824;2022-11-23T03:54:01;7.00;99.90
13854;DHT22;6997;51.782;8.824;2022-11-23T03:56:27;7.10;99.90
13854;DHT22;6997;51.782;8.824;2022-11-23T03:58:52;7.00;99.90
13854;DHT22;6997;51.782;8.824;2022-11-23T04:03:44;7.00;99.90
13854;DHT22;6997;51.782;8.824;2022-11-23T04:06:09;7.00;99.90
13854;DHT22;6997;51.782;8.824;2022-11-23T04:08:35;7.10;99.90
13854;DHT22;6997;51.782;8.824;2022-11-23T04:15:52;7.00;99.90
13854;DHT22;6997;51.782;8.824;2022-11-23T04:18:21;7.00;99.90
13854;DHT22;6997;51.782;8.824;2022-11-23T04:20:46;7.00;99.90
13854;DHT22;6997;51.782;8.824;2022-11-23T04:23:12;7.00;99.90
13854;DHT22;6997;51.782;8.824;2022-11-23T04:25:37;6.90;99.90
13854;DHT22;6997;51.782;8.824;2022-11-23T04:30:29;7.10;99.90
13854;DHT22;6997;51.782;8.824;2022-11-23T04:35:20;7.00;99.90
13854;DHT22;6997;51.782;8.824;2022-11-23T04:37:46;6.80;99.90
13854;DHT22;6997;51.782;8.824;2022-11-23T04:40:12;6.80;99.90
13854;DHT22;6997;51.782;8.824;2022-11-23T04:42:38;6.90;99.90
13854;DHT22;6997;51.782;8.824;2022-11-23T04:47:30;6.90;99.90
13854;DHT22;6997;51.782;8.824;2022-11-23T04:52:22;6.80;99.90
13854;DHT22;6997;51.782;8.824;2022-11-23T04:54:47;6.80;99.90
13854;DHT22;6997;51.782;8.824;2022-11-23T04:57:13;6.80;99.90
13854;DHT22;6997;51.782;8.824;2022-11-23T05:06:56;6.70;99.90
13854;DHT22;6997;51.782;8.824;2022-11-23T05:09:22;6.70;99.90
13854;DHT22;6997;51.782;8.824;2022-11-23T05:16:39;6.60;99.90
13854;DHT22;6997;51.782;8.824;2022-11-23T05:21:31;6.60;99.90
13854;DHT22;6997;51.782;8.824;2022-11-23T05:23:57;6.60;99.90
13854;DHT22;6997;51.782;8.824;2022-11-23T05:26:22;6.70;99.90
13854;DHT22;6997;51.782;8.824;2022-11-23T05:31:14;6.70;99.90
13854;DHT22;6997;51.782;8.824;2022-11-23T05:38:32;6.90;99.90
13854;DHT22;6997;51.782;8.824;2022-11-23T05:43:23;6.90;99.90
13854;DHT22;6997;51.782;8.824;2022-11-23T05:45:49;7.00;99.90
13854;DHT22;6997;51.782;8.824;2022-11-23T05:50:41;7.00;99.90
13854;DHT22;6997;51.782;8.824;2022-11-23T05:55:32;6.80;99.90
13854;DHT22;6997;51.782;8.824;2022-11-23T05:57:58;6.90;99.90
13854;DHT22;6997;51.782;8.824;2022-11-23T06:00:23;6.90;99.90
13854;DHT22;6997;51.782;8.824;2022-11-23T06:02:49;7.10;99.90
13854;DHT22;6997;51.782;8.824;2022-11-23T06:05:15;7.00;99.90
13854;DHT22;6997;51.782;8.824;2022-11-23T06:07:41;7.10;99.90
13854;DHT22;6997;51.782;8.824;2022-11-23T06:10:06;7.10;99.90
13854;DHT22;6997;51.782;8.824;2022-11-23T06:12:32;7.00;99.90
13854;DHT22;6997;51.782;8.824;2022-11-23T06:14:58;7.00;99.90
13854;DHT22;6997;51.782;8.824;2022-11-23T06:17:24;6.90;99.90
13854;DHT22;6997;51.782;8.824;2022-11-23T06:22:18;6.90;99.90
13854;DHT22;6997;51.782;8.824;2022-11-23T06:27:11;7.00;99.90
13854;DHT22;6997;51.782;8.824;2022-11-23T06:29:41;7.10;99.90
13854;DHT22;6997;51.782;8.824;2022-11-23T06:32:06;7.00;99.90
13854;DHT22;6997;51.782;8.824;2022-11-23T06:36:59;6.90;99.90
13854;DHT22;6997;51.782;8.824;2022-11-23T06:39:25;6.90;99.90
13854;DHT22;6997;51.782;8.824;2022-11-23T06:41:51;6.90;99.90
13854;DHT22;6997;51.782;8.824;2022-11-23T06:44:17;7.00;99.90
13854;DHT22;6997;51.782;8.824;2022-11-23T06:49:09;6.90;99.90
13854;DHT22;6997;51.782;8.824;2022-11-23T06:54:02;6.90;99.90
13854;DHT22;6997;51.782;8.824;2022-11-23T06:56:31;6.90;99.90
13854;DHT22;6997;51.782;8.824;2022-11-23T06:58:59;7.00;99.90
13854;DHT22;6997;51.782;8.824;2022-11-23T07:01:26;7.00;99.90
13854;DHT22;6997;51.782;8.824;2022-11-23T07:03:54;7.00;99.90
13854;DHT22;6997;51.782;8.824;2022-11-23T07:06:22;7.10;99.90
13854;DHT22;6997;51.782;8.824;2022-11-23T07:08:56;7.00;99.90
13854;DHT22;6997;51.782;8.824;2022-11-23T07:11:24;7.10;99.90
13854;DHT22;6997;51.782;8.824;2022-11-23T07:13:50;7.10;99.90
13854;DHT22;6997;51.782;8.824;2022-11-23T07:16:18;7.10;99.90
13854;DHT22;6997;51.782;8.824;2022-11-23T07:18:46;7.10;99.90
13854;DHT22;6997;51.782;8.824;2022-11-23T07:21:14;7.10;99.90
13854;DHT22;6997;51.782;8.824;2022-11-23T07:51:17;7.40;99.90
13854;DHT22;6997;51.782;8.824;2022-11-23T08:24:43;7.60;99.90
13854;DHT22;6997;51.782;8.824;2022-11-23T08:27:09;7.80;99.90
13854;DHT22;6997;51.782;8.824;2022-11-23T08:29:35;7.80;99.90
13854;DHT22;6997;51.782;8.824;2022-11-23T08:32:00;8.00;99.90
13854;DHT22;6997;51.782;8.824;2022-11-23T08:39:18;8.00;99.90
13854;DHT22;6997;51.782;8.824;2022-11-23T08:41:44;8.00;99.90
13854;DHT22;6997;51.782;8.824;2022-11-23T08:44:10;8.00;99.90
13854;DHT22;6997;51.782;8.824;2022-11-23T08:46:37;8.00;99.90
13854;DHT22;6997;51.782;8.824;2022-11-23T08:49:03;8.00;99.90
13854;DHT22;6997;51.782;8.824;2022-11-23T08:51:29;8.10;99.90
13854;DHT22;6997;51.782;8.824;2022-11-23T08:58:47;8.10;99.90
13854;DHT22;6997;51.782;8.824;2022-11-23T09:01:14;8.20;99.90
13854;DHT22;6997;51.782;8.824;2022-11-23T09:03:41;8.10;99.90
13854;DHT22;6997;51.782;8.824;2022-11-23T09:06:07;8.20;99.90
13854;DHT22;6997;51.782;8.824;2022-11-23T09:11:04;8.20;99.90
13854;DHT22;6997;51.782;8.824;2022-11-23T09:13:30;8.20;99.90
13854;DHT22;6997;51.782;8.824;2022-11-23T09:16:00;8.30;99.90
13854;DHT22;6997;51.782;8.824;2022-11-23T09:18:26;8.30;99.90
13854;DHT22;6997;51.782;8.824;2022-11-23T09:20:52;8.30;99.90
13854;DHT22;6997;51.782;8.824;2022-11-23T09:23:18;8.40;99.90
13854;DHT22;6997;51.782;8.824;2022-11-23T09:28:13;8.40;99.90
13854;DHT22;6997;51.782;8.824;2022-11-23T09:30:40;8.50;99.90
13854;DHT22;6997;51.782;8.824;2022-11-23T09:33:07;8.50;99.90
13854;DHT22;6997;51.782;8.824;2022-11-23T09:35:36;8.60;99.90
13854;DHT22;6997;51.782;8.824;2022-11-23T09:40:37;8.60;99.90
13854;DHT22;6997;51.782;8.824;2022-11-23T09:43:45;8.70;99.90
13854;DHT22;6997;51.782;8.824;2022-11-23T09:46:59;8.70;99.90
13854;DHT22;6997;51.782;8.824;2022-11-23T09:51:30;8.80;99.90
13854;DHT22;6997;51.782;8.824;2022-11-23T09:53:58;8.80;99.90
13854;DHT22;6997;51.782;8.824;2022-11-23T09:56:33;9.00;99.90
13854;DHT22;6997;51.782;8.824;2022-11-23T09:59:17;9.00;99.90
13854;DHT22;6997;51.782;8.824;2022-11-23T10:01:47;9.00;99.90
13854;DHT22;6997;51.782;8.824;2022-11-23T10:04:18;9.00;99.90
13854;DHT22;6997;51.782;8.824;2022-11-23T10:06:51;9.10;99.90
13854;DHT22;6997;51.782;8.824;2022-11-23T10:09:20;9.10;99.90
13854;DHT22;6997;51.782;8.824;2022-11-23T10:15:18;9.20;99.90
13854;DHT22;6997;51.782;8.824;2022-11-23T10:25:50;9.20;99.90
13854;DHT22;6997;51.782;8.824;2022-11-23T10:28:20;9.20;99.90
13854;DHT22;6997;51.782;8.824;2022-11-23T10:31:17;9.30;99.90
13854;DHT22;6997;51.782;8.824;2022-11-23T10:36:34;9.20;99.90
13854;DHT22;6997;51.782;8.824;2022-11-23T10:39:01;9.10;99.90
13854;DHT22;6997;51.782;8.824;2022-11-23T10:41:30;9.10;99.90
13854;DHT22;6997;51.782;8.824;2022-11-23T10:44:17;9.10;99.90
13854;DHT22;6997;51.782;8.824;2022-11-23T10:46:45;9.20;99.90
13854;DHT22;6997;51.782;8.824;2022-11-23T10:49:30;9.20;99.90
13854;DHT22;6997;51.782;8.824;2022-11-23T10:52:02;9.20;99.90
13854;DHT22;6997;51.782;8.824;2022-11-23T10:54:35;9.30;99.90
13854;DHT22;6997;51.782;8.824;2022-11-23T10:57:42;9.20;99.90
13854;DHT22;6997;51.782;8.824;2022-11-23T11:02:45;9.20;99.90
13854;DHT22;6997;51.782;8.824;2022-11-23T11:07:54;9.30;99.90
13854;DHT22;6997;51.782;8.824;2022-11-23T11:13:27;9.30;99.90
13854;DHT22;6997;51.782;8.824;2022-11-23T11:16:03;9.50;99.90
13854;DHT22;6997;51.782;8.824;2022-11-23T11:18:36;9.50;99.90
13854;DHT22;6997;51.782;8.824;2022-11-23T11:23:29;9.50;99.90
13854;DHT22;6997;51.782;8.824;2022-11-23T11:26:22;8.10;99.90
13854;DHT22;6997;51.782;8.824;2022-11-23T11:28:54;9.60;99.90
13854;DHT22;6997;51.782;8.824;2022-11-23T11:36:55;9.60;99.90
13854;DHT22;6997;51.782;8.824;2022-11-23T11:42:29;9.60;99.90
13854;DHT22;6997;51.782;8.824;2022-11-23T11:45:01;9.70;99.90
13854;DHT22;6997;51.782;8.824;2022-11-23T11:47:32;9.70;99.90
13854;DHT22;6997;51.782;8.824;2022-11-23T11:50:05;9.60;99.90
13854;DHT22;6997;51.782;8.824;2022-11-23T11:52:36;9.70;99.90
13854;DHT22;6997;51.782;8.824;2022-11-23T11:55:18;9.70;99.90
13854;DHT22;6997;51.782;8.824;2022-11-23T11:57:51;9.60;99.90
13854;DHT22;6997;51.782;8.824;2022-11-23T12:00:19;9.60;99.90
13854;DHT22;6997;51.782;8.824;2022-11-23T12:03:46;9.50;99.90
13854;DHT22;6997;51.782;8.824;2022-11-23T12:05:53;9.50;99.90
13854;DHT22;6997;51.782;8.824;2022-11-23T12:08:31;9.50;99.90
13854;DHT22;6997;51.782;8.824;2022-11-23T12:10:59;9.50;99.90
13854;DHT22;6997;51.782;8.824;2022-11-23T12:13:27;9.50;99.90
13854;DHT22;6997;51.782;8.824;2022-11-23T12:16:15;9.60;99.90
13854;DHT22;6997;51.782;8.824;2022-11-23T12:21:56;9.60;99.90
13854;DHT22;6997;51.782;8.824;2022-11-23T12:27:20;9.50;99.90
13854;DHT22;6997;51.782;8.824;2022-11-23T12:35:35;9.60;99.90
13854;DHT22;6997;51.782;8.824;2022-11-23T12:46:25;9.90;99.90
13854;DHT22;6997;51.782;8.824;2022-11-23T12:49:10;9.90;99.90
13854;DHT22;6997;51.782;8.824;2022-11-23T13:00:04;13.20;99.90
13854;DHT22;6997;51.782;8.824;2022-11-23T13:07:55;12.90;99.90
13854;DHT22;6997;51.782;8.824;2022-11-23T13:13:26;11.80;99.90
13854;DHT22;6997;51.782;8.824;2022-11-23T13:18:49;11.60;99.90
13854;DHT22;6997;51.782;8.824;2022-11-23T13:21:36;11.40;99.90
13854;DHT22;6997;51.782;8.824;2022-11-23T13:24:03;11.50;99.90
13854;DHT22;6997;51.782;8.824;2022-11-23T13:26:29;11.30;99.90
13854;DHT22;6997;51.782;8.824;2022-11-23T13:28:58;11.00;99.90
13854;DHT22;6997;51.782;8.824;2022-11-23T13:31:30;10.80;99.90
13854;DHT22;6997;51.782;8.824;2022-11-23T13:34:22;10.40;99.90
13854;DHT22;6997;51.782;8.824;2022-11-23T13:36:59;10.40;99.90
13854;DHT22;6997;51.782;8.824;2022-11-23T13:48:58;10.00;99.90
13854;DHT22;6997;51.782;8.824;2022-11-23T13:51:29;9.80;99.90
13854;DHT22;6997;51.782;8.824;2022-11-23T13:53:59;9.90;99.90
13854;DHT22;6997;51.782;8.824;2022-11-23T13:56:35;9.90;99.90
13854;DHT22;6997;51.782;8.824;2022-11-23T15:27:03;7.80;99.90
13854;DHT22;6997;51.782;8.824;2022-11-23T15:32:21;7.60;99.90
13854;DHT22;6997;51.782;8.824;2022-11-23T15:34:47;7.50;99.90
13854;DHT22;6997;51.782;8.824;2022-11-23T15:39:39;7.60;99.90
13854;DHT22;6997;51.782;8.824;2022-11-23T15:42:07;7.50;99.90
13854;DHT22;6997;51.782;8.824;2022-11-23T15:44:37;7.50;99.90
13854;DHT22;6997;51.782;8.824;2022-11-23T15:47:04;7.40;99.90
13854;DHT22;6997;51.782;8.824;2022-11-23T15:49:38;7.40;99.90
13854;DHT22;6997;51.782;8.824;2022-11-23T15:54:36;7.30;99.90
13854;DHT22;6997;51.782;8.824;2022-11-23T15:57:06;7.40;99.90
13854;DHT22;6997;51.782;8.824;2022-11-23T16:02:05;7.20;99.90
13854;DHT22;6997;51.782;8.824;2022-11-23T16:09:44;7.20;99.90
13854;DHT22;6997;51.782;8.824;2022-11-23T16:14:51;7.00;99.90
13854;DHT22;6997;51.782;8.824;2022-11-23T16:17:25;7.00;99.90
13854;DHT22;6997;51.782;8.824;2022-11-23T16:19:56;7.00;99.90
13854;DHT22;6997;51.782;8.824;2022-11-23T16:22:30;6.90;99.90
13854;DHT22;6997;51.782;8.824;2022-11-23T16:25:06;6.80;99.90
13854;DHT22;6997;51.782;8.824;2022-11-23T16:27:34;6.80;99.90
13854;DHT22;6997;51.782;8.824;2022-11-23T16:30:00;6.70;99.90
13854;DHT22;6997;51.782;8.824;2022-11-23T16:32:30;6.70;99.90
13854;DHT22;6997;51.782;8.824;2022-11-23T16:35:17;6.60;99.90
13854;DHT22;6997;51.782;8.824;2022-11-23T16:37:44;6.50;99.90
13854;DHT22;6997;51.782;8.824;2022-11-23T16:40:10;6.50;99.90
13854;DHT22;6997;51.782;8.824;2022-11-23T16:54:49;6.20;99.90
13854;DHT22;6997;51.782;8.824;2022-11-23T16:57:35;6.10;99.90
13854;DHT22;6997;51.782;8.824;2022-11-23T17:00:05;6.10;99.90
13854;DHT22;6997;51.782;8.824;2022-11-23T17:12:17;5.80;99.90
13854;DHT22;6997;51.782;8.824;2022-11-23T17:14:46;5.80;99.90
13854;DHT22;6997;51.782;8.824;2022-11-23T17:17:20;5.80;99.90
13854;DHT22;6997;51.782;8.824;2022-11-23T17:19:50;5.70;99.90
13854;DHT22;6997;51.782;8.824;2022-11-23T17:22:19;5.60;99.90
13854;DHT22;6997;51.782;8.824;2022-11-23T17:24:46;5.60;99.90
13854;DHT22;6997;51.782;8.824;2022-11-23T17:27:14;5.50;99.90
13854;DHT22;6997;51.782;8.824;2022-11-23T17:29:42;5.40;99.90
13854;DHT22;6997;51.782;8.824;2022-11-23T17:32:13;5.40;99.90
13854;DHT22;6997;51.782;8.824;2022-11-23T17:34:39;5.40;99.90
13854;DHT22;6997;51.782;8.824;2022-11-23T17:39:31;5.60;99.90
13854;DHT22;6997;51.782;8.824;2022-11-23T17:46:50;5.70;99.90
13854;DHT22;6997;51.782;8.824;2022-11-23T17:51:44;5.90;99.90
13854;DHT22;6997;51.782;8.824;2022-11-23T17:56:37;6.00;99.90
13854;DHT22;6997;51.782;8.824;2022-11-23T17:59:03;6.00;99.90
13854;DHT22;6997;51.782;8.824;2022-11-23T18:01:31;6.00;99.90
13854;DHT22;6997;51.782;8.824;2022-11-23T18:06:26;6.20;99.90
13854;DHT22;6997;51.782;8.824;2022-11-23T18:11:20;6.30;99.90
13854;DHT22;6997;51.782;8.824;2022-11-23T18:13:46;6.40;99.90
13854;DHT22;6997;51.782;8.824;2022-11-23T18:16:14;6.50;99.90
13854;DHT22;6997;51.782;8.824;2022-11-23T18:18:40;6.60;99.90
13854;DHT22;6997;51.782;8.824;2022-11-23T18:26:02;6.70;99.90
13854;DHT22;6997;51.782;8.824;2022-11-23T18:33:20;6.70;99.90
13854;DHT22;6997;51.782;8.824;2022-11-23T18:40:38;6.70;99.90
13854;DHT22;6997;51.782;8.824;2022-11-23T18:43:04;6.70;99.90
13854;DHT22;6997;51.782;8.824;2022-11-23T18:45:29;6.80;99.90
13854;DHT22;6997;51.782;8.824;2022-11-23T18:47:55;6.70;99.90
13854;DHT22;6997;51.782;8.824;2022-11-23T18:55:12;6.80;99.90
13854;DHT22;6997;51.782;8.824;2022-11-23T19:00:04;6.90;99.90
13854;DHT22;6997;51.782;8.824;2022-11-23T19:02:33;6.90;99.90
13854;DHT22;6997;51.782;8.824;2022-11-23T19:04:59;6.90;99.90
13854;DHT22;6997;51.782;8.824;2022-11-23T19:07:24;6.90;99.90
13854;DHT22;6997;51.782;8.824;2022-11-23T19:19:39;7.10;99.90
13854;DHT22;6997;51.782;8.824;2022-11-23T19:22:05;7.00;99.90
13854;DHT22;6997;51.782;8.824;2022-11-23T19:24:30;6.90;99.90
13854;DHT22;6997;51.782;8.824;2022-11-23T19:26:56;7.10;99.90
13854;DHT22;6997;51.782;8.824;2022-11-23T19:31:49;7.00;99.90
13854;DHT22;6997;51.782;8.824;2022-11-23T19:34:18;7.00;99.90
13854;DHT22;6997;51.782;8.824;2022-11-23T19:36:44;7.00;99.90
13854;DHT22;6997;51.782;8.824;2022-11-23T19:39:09;7.00;99.90
13854;DHT22;6997;51.782;8.824;2022-11-23T19:44:01;7.00;99.90
13854;DHT22;6997;51.782;8.824;2022-11-23T19:46:28;7.00;99.90
13854;DHT22;6997;51.782;8.824;2022-11-23T19:53:48;6.90;99.90
13854;DHT22;6997;51.782;8.824;2022-11-23T19:56:21;6.90;99.90
13854;DHT22;6997;51.782;8.824;2022-11-23T19:58:52;6.80;99.90
13854;DHT22;6997;51.782;8.824;2022-11-23T20:01:20;6.80;99.90
13854;DHT22;6997;51.782;8.824;2022-11-23T20:03:50;6.70;99.90
13854;DHT22;6997;51.782;8.824;2022-11-23T20:06:25;6.70;99.90
13854;DHT22;6997;51.782;8.824;2022-11-23T20:11:23;6.70;99.90
13854;DHT22;6997;51.782;8.824;2022-11-23T20:16:17;6.70;99.90
13854;DHT22;6997;51.782;8.824;2022-11-23T20:18:44;6.70;99.90
13854;DHT22;6997;51.782;8.824;2022-11-23T20:21:15;6.70;99.90
13854;DHT22;6997;51.782;8.824;2022-11-23T20:23:42;6.80;99.90
13854;DHT22;6997;51.782;8.824;2022-11-23T20:26:10;6.80;99.90
13854;DHT22;6997;51.782;8.824;2022-11-23T20:31:05;6.70;99.90
13854;DHT22;6997;51.782;8.824;2022-11-23T20:33:32;6.60;99.90
13854;DHT22;6997;51.782;8.824;2022-11-23T20:36:13;6.70;99.90
13854;DHT22;6997;51.782;8.824;2022-11-23T20:38:40;6.60;99.90
13854;DHT22;6997;51.782;8.824;2022-11-23T20:43:43;6.60;99.90
13854;DHT22;6997;51.782;8.824;2022-11-23T20:46:09;6.60;99.90
13854;DHT22;6997;51.782;8.824;2022-11-23T20:48:34;6.50;99.90
13854;DHT22;6997;51.782;8.824;2022-11-23T20:51:01;6.60;99.90
13854;DHT22;6997;51.782;8.824;2022-11-23T20:53:29;6.50;99.90
13854;DHT22;6997;51.782;8.824;2022-11-23T20:56:02;6.50;99.90
13854;DHT22;6997;51.782;8.824;2022-11-23T20:58:28;6.50;99.90
13854;DHT22;6997;51.782;8.824;2022-11-23T21:00:54;6.50;99.90
13854;DHT22;6997;51.782;8.824;2022-11-23T21:03:20;6.50;99.90
13854;DHT22;6997;51.782;8.824;2022-11-23T21:08:11;6.40;99.90
13854;DHT22;6997;51.782;8.824;2022-11-23T21:10:41;6.40;99.90
13854;DHT22;6997;51.782;8.824;2022-11-23T21:13:26;6.30;99.90
13854;DHT22;6997;51.782;8.824;2022-11-23T21:18:36;6.30;99.90
13854;DHT22;6997;51.782;8.824;2022-11-23T21:21:02;6.40;99.90
13854;DHT22;6997;51.782;8.824;2022-11-23T21:26:03;6.30;99.90
13854;DHT22;6997;51.782;8.824;2022-11-23T21:28:29;6.40;99.90
13854;DHT22;6997;51.782;8.824;2022-11-23T21:30:55;6.30;99.90
13854;DHT22;6997;51.782;8.824;2022-11-23T21:33:20;6.40;99.90
13854;DHT22;6997;51.782;8.824;2022-11-23T21:38:12;6.30;99.90
13854;DHT22;6997;51.782;8.824;2022-11-23T21:43:04;6.40;99.90
13854;DHT22;6997;51.782;8.824;2022-11-23T21:45:29;6.40;99.90
13854;DHT22;6997;51.782;8.824;2022-11-23T21:47:55;6.40;99.90
13854;DHT22;6997;51.782;8.824;2022-11-23T21:50:21;6.40;99.90
13854;DHT22;6997;51.782;8.824;2022-11-23T21:57:38;6.50;99.90
13854;DHT22;6997;51.782;8.824;2022-11-23T22:00:04;6.40;99.90
13854;DHT22;6997;51.782;8.824;2022-11-23T22:02:30;6.50;99.90
13854;DHT22;6997;51.782;8.824;2022-11-23T22:04:55;6.40;99.90
13854;DHT22;6997;51.782;8.824;2022-11-23T22:07:21;6.50;99.90
13854;DHT22;6997;51.782;8.824;2022-11-23T22:09:46;6.50;99.90
13854;DHT22;6997;51.782;8.824;2022-11-23T22:14:38;6.50;99.90
13854;DHT22;6997;51.782;8.824;2022-11-23T22:19:29;6.40;99.90
13854;DHT22;6997;51.782;8.824;2022-11-23T22:24:21;6.60;99.90
13854;DHT22;6997;51.782;8.824;2022-11-23T22:26:47;6.60;99.90
13854;DHT22;6997;51.782;8.824;2022-11-23T22:29:12;6.60;99.90
13854;DHT22;6997;51.782;8.824;2022-11-23T22:31:38;6.50;99.90
13854;DHT22;6997;51.782;8.824;2022-11-23T22:34:05;6.50;99.90
13854;DHT22;6997;51.782;8.824;2022-11-23T22:36:32;6.60;99.90
13854;DHT22;6997;51.782;8.824;2022-11-23T22:39:00;6.60;99.90
13854;DHT22;6997;51.782;8.824;2022-11-23T22:41:27;6.60;99.90
13854;DHT22;6997;51.782;8.824;2022-11-23T22:43:53;6.60;99.90
13854;DHT22;6997;51.782;8.824;2022-11-23T22:46:21;6.70;99.90
13854;DHT22;6997;51.782;8.824;2022-11-23T22:48:49;6.60;99.90
13854;DHT22;6997;51.782;8.824;2022-11-23T22:51:17;6.60;99.90
13854;DHT22;6997;51.782;8.824;2022-11-23T22:53:43;6.70;99.90
13854;DHT22;6997;51.782;8.824;2022-11-23T22:56:13;6.60;99.90
13854;DHT22;6997;51.782;8.824;2022-11-23T22:58:39;6.80;99.90
13854;DHT22;6997;51.782;8.824;2022-11-23T23:01:06;6.80;99.90
13854;DHT22;6997;51.782;8.824;2022-11-23T23:03:33;6.70;99.90
13854;DHT22;6997;51.782;8.824;2022-11-23T23:05:59;6.70;99.90
13854;DHT22;6997;51.782;8.824;2022-11-23T23:08:25;6.70;99.90
13854;DHT22;6997;51.782;8.824;2022-11-23T23:13:18;6.60;99.90
13854;DHT22;6997;51.782;8.824;2022-11-23T23:20:37;6.80;99.90
13854;DHT22;6997;51.782;8.824;2022-11-23T23:23:03;6.70;99.90
13854;DHT22;6997;51.782;8.824;2022-11-23T23:25:29;6.70;99.90
13854;DHT22;6997;51.782;8.824;2022-11-23T23:30:21;6.70;99.90
13854;DHT22;6997;51.782;8.824;2022-11-23T23:35:13;6.70;99.90
13854;DHT22;6997;51.782;8.824;2022-11-23T23:40:05;6.70;99.90
13854;DHT22;6997;51.782;8.824;2022-11-23T23:42:31;6.70;99.90
13854;DHT22;6997;51.782;8.824;2022-11-23T23:49:50;6.90;99.90
13854;DHT22;6997;51.782;8.824;2022-11-23T23:52:16;6.90;99.90
13854;DHT22;6997;51.782;8.824;2022-11-23T23:54:41;6.90;99.90
13854;DHT22;6997;51.782;8.824;2022-11-23T23:59:33;6.80;99.90
